sensor_id;sensor_type;location;lat;lon;timestamp;P1;durP1;ratioP1;P2;durP2;ratioP2
10303;SDS011;5197;48.152;8.590;2022-08-19T00:01:29;22.87;;;20.63;;
10303;SDS011;5197;48.152;8.590;2022-08-19T00:03:57;23.97;;;21.57;;
10303;SDS011;5197;48.152;8.590;2022-08-19T00:06:26;24.07;;;21.67;;
10303;SDS011;5197;48.152;8.590;2022-08-19T00:08:55;25.47;;;22.90;;
10303;SDS011;5197;48.152;8.590;2022-08-19T00:11:23;25.67;;;22.33;;
10303;SDS011;5197;48.152;8.590;2022-08-19T00:13:54;26.30;;;23.47;;
10303;SDS011;5197;48.152;8.590;2022-08-19T00:16:23;25.77;;;23.17;;
10303;SDS011;5197;48.152;8.590;2022-08-19T00:18:53;25.53;;;22.13;;
10303;SDS011;5197;48.152;8.590;2022-08-19T00:21:25;25.77;;;23.10;;
10303;SDS011;5197;48.152;8.590;2022-08-19T00:23:53;25.20;;;22.57;;
10303;SDS011;5197;48.152;8.590;2022-08-19T00:26:25;24.80;;;22.43;;
10303;SDS011;5197;48.152;8.590;2022-08-19T00:28:53;24.63;;;22.13;;
10303;SDS011;5197;48.152;8.590;2022-08-19T00:31:21;24.23;;;21.77;;
10303;SDS011;5197;48.152;8.590;2022-08-19T00:33:48;24.27;;;21.77;;
10303;SDS011;5197;48.152;8.590;2022-08-19T00:36:18;23.80;;;21.30;;
10303;SDS011;5197;48.152;8.590;2022-08-19T00:38:45;25.33;;;22.73;;
10303;SDS011;5197;48.152;8.590;2022-08-19T00:41:13;21.80;;;19.50;;
10303;SDS011;5197;48.152;8.590;2022-08-19T00:43:41;24.03;;;21.53;;
10303;SDS011;5197;48.152;8.590;2022-08-19T00:46:08;22.17;;;19.73;;
10303;SDS011;5197;48.152;8.590;2022-08-19T00:48:35;22.00;;;19.63;;
10303;SDS011;5197;48.152;8.590;2022-08-19T00:51:03;23.30;;;20.80;;
10303;SDS011;5197;48.152;8.590;2022-08-19T00:53:31;15.37;;;12.73;;
10303;SDS011;5197;48.152;8.590;2022-08-19T00:56:00;24.63;;;22.13;;
10303;SDS011;5197;48.152;8.590;2022-08-19T00:58:31;23.03;;;20.63;;
10303;SDS011;5197;48.152;8.590;2022-08-19T01:01:00;21.17;;;17.87;;
10303;SDS011;5197;48.152;8.590;2022-08-19T01:03:28;22.93;;;20.53;;
10303;SDS011;5197;48.152;8.590;2022-08-19T01:06:15;20.03;;;17.90;;
10303;SDS011;5197;48.152;8.590;2022-08-19T01:08:46;22.63;;;20.20;;
10303;SDS011;5197;48.152;8.590;2022-08-19T01:11:15;25.13;;;22.53;;
10303;SDS011;5197;48.152;8.590;2022-08-19T01:13:43;23.47;;;21.03;;
10303;SDS011;5197;48.152;8.590;2022-08-19T01:16:15;24.60;;;20.53;;
10303;SDS011;5197;48.152;8.590;2022-08-19T01:18:45;25.80;;;22.17;;
10303;SDS011;5197;48.152;8.590;2022-08-19T01:21:18;28.33;;;21.80;;
10303;SDS011;5197;48.152;8.590;2022-08-19T01:23:50;24.83;;;22.17;;
10303;SDS011;5197;48.152;8.590;2022-08-19T01:26:19;26.23;;;23.43;;
10303;SDS011;5197;48.152;8.590;2022-08-19T01:28:50;26.77;;;24.03;;
10303;SDS011;5197;48.152;8.590;2022-08-19T01:31:27;25.93;;;22.20;;
10303;SDS011;5197;48.152;8.590;2022-08-19T01:33:58;24.37;;;21.77;;
10303;SDS011;5197;48.152;8.590;2022-08-19T01:36:32;24.67;;;22.00;;
10303;SDS011;5197;48.152;8.590;2022-08-19T01:39:05;25.43;;;22.53;;
10303;SDS011;5197;48.152;8.590;2022-08-19T01:41:36;23.80;;;21.30;;
10303;SDS011;5197;48.152;8.590;2022-08-19T01:44:03;22.97;;;20.47;;
10303;SDS011;5197;48.152;8.590;2022-08-19T01:46:44;23.40;;;20.70;;
10303;SDS011;5197;48.152;8.590;2022-08-19T01:49:14;23.63;;;21.13;;
10303;SDS011;5197;48.152;8.590;2022-08-19T01:51:42;23.30;;;19.77;;
10303;SDS011;5197;48.152;8.590;2022-08-19T01:54:10;23.90;;;20.37;;
10303;SDS011;5197;48.152;8.590;2022-08-19T01:56:49;22.33;;;19.17;;
10303;SDS011;5197;48.152;8.590;2022-08-19T01:59:22;28.40;;;23.83;;
10303;SDS011;5197;48.152;8.590;2022-08-19T02:01:50;26.07;;;23.27;;
10303;SDS011;5197;48.152;8.590;2022-08-19T02:04:17;24.33;;;21.73;;
10303;SDS011;5197;48.152;8.590;2022-08-19T02:06:44;25.43;;;22.70;;
10303;SDS011;5197;48.152;8.590;2022-08-19T02:09:11;24.63;;;22.07;;
10303;SDS011;5197;48.152;8.590;2022-08-19T02:11:38;25.77;;;21.43;;
10303;SDS011;5197;48.152;8.590;2022-08-19T02:14:06;24.13;;;21.37;;
10303;SDS011;5197;48.152;8.590;2022-08-19T02:16:35;25.07;;;22.47;;
10303;SDS011;5197;48.152;8.590;2022-08-19T02:19:03;22.90;;;19.67;;
10303;SDS011;5197;48.152;8.590;2022-08-19T02:21:30;21.57;;;18.50;;
10303;SDS011;5197;48.152;8.590;2022-08-19T02:23:57;25.47;;;20.83;;
10303;SDS011;5197;48.152;8.590;2022-08-19T02:26:24;26.23;;;20.63;;
10303;SDS011;5197;48.152;8.590;2022-08-19T02:28:55;22.83;;;20.33;;
10303;SDS011;5197;48.152;8.590;2022-08-19T02:31:24;23.90;;;19.77;;
10303;SDS011;5197;48.152;8.590;2022-08-19T02:33:51;18.40;;;16.37;;
10303;SDS011;5197;48.152;8.590;2022-08-19T02:36:22;26.27;;;23.07;;
10303;SDS011;5197;48.152;8.590;2022-08-19T02:38:56;26.70;;;23.63;;
10303;SDS011;5197;48.152;8.590;2022-08-19T02:41:24;23.07;;;18.07;;
10303;SDS011;5197;48.152;8.590;2022-08-19T02:43:55;24.13;;;21.23;;
10303;SDS011;5197;48.152;8.590;2022-08-19T02:46:45;28.67;;;21.97;;
10303;SDS011;5197;48.152;8.590;2022-08-19T02:49:13;29.67;;;23.33;;
10303;SDS011;5197;48.152;8.590;2022-08-19T02:51:44;25.73;;;21.57;;
10303;SDS011;5197;48.152;8.590;2022-08-19T02:54:12;24.43;;;18.87;;
10303;SDS011;5197;48.152;8.590;2022-08-19T02:56:40;25.83;;;21.77;;
10303;SDS011;5197;48.152;8.590;2022-08-19T02:59:09;26.57;;;22.57;;
10303;SDS011;5197;48.152;8.590;2022-08-19T03:01:39;26.37;;;23.13;;
10303;SDS011;5197;48.152;8.590;2022-08-19T03:04:09;26.53;;;22.43;;
10303;SDS011;5197;48.152;8.590;2022-08-19T03:06:43;26.60;;;22.50;;
10303;SDS011;5197;48.152;8.590;2022-08-19T03:09:12;24.27;;;21.67;;
10303;SDS011;5197;48.152;8.590;2022-08-19T03:11:40;25.23;;;20.73;;
10303;SDS011;5197;48.152;8.590;2022-08-19T03:14:08;26.43;;;23.20;;
10303;SDS011;5197;48.152;8.590;2022-08-19T03:16:46;27.53;;;23.60;;
10303;SDS011;5197;48.152;8.590;2022-08-19T03:19:18;25.57;;;21.67;;
10303;SDS011;5197;48.152;8.590;2022-08-19T03:21:47;25.30;;;18.30;;
10303;SDS011;5197;48.152;8.590;2022-08-19T03:24:16;19.93;;;16.37;;
10303;SDS011;5197;48.152;8.590;2022-08-19T03:26:46;20.23;;;16.77;;
10303;SDS011;5197;48.152;8.590;2022-08-19T03:29:18;25.50;;;21.37;;
10303;SDS011;5197;48.152;8.590;2022-08-19T03:32:00;27.67;;;21.20;;
10303;SDS011;5197;48.152;8.590;2022-08-19T03:34:31;25.97;;;21.07;;
10303;SDS011;5197;48.152;8.590;2022-08-19T03:37:02;26.83;;;22.70;;
10303;SDS011;5197;48.152;8.590;2022-08-19T03:39:32;29.50;;;21.63;;
10303;SDS011;5197;48.152;8.590;2022-08-19T03:41:59;23.83;;;19.03;;
10303;SDS011;5197;48.152;8.590;2022-08-19T03:44:48;25.97;;;19.63;;
10303;SDS011;5197;48.152;8.590;2022-08-19T03:47:15;28.63;;;22.03;;
10303;SDS011;5197;48.152;8.590;2022-08-19T03:49:43;28.23;;;22.10;;
10303;SDS011;5197;48.152;8.590;2022-08-19T03:52:10;25.83;;;22.00;;
10303;SDS011;5197;48.152;8.590;2022-08-19T03:54:37;26.23;;;21.73;;
10303;SDS011;5197;48.152;8.590;2022-08-19T03:57:04;27.77;;;19.93;;
10303;SDS011;5197;48.152;8.590;2022-08-19T03:59:33;30.57;;;25.37;;
10303;SDS011;5197;48.152;8.590;2022-08-19T04:02:03;27.73;;;23.17;;
10303;SDS011;5197;48.152;8.590;2022-08-19T04:04:36;27.97;;;22.23;;
10303;SDS011;5197;48.152;8.590;2022-08-19T04:07:04;31.43;;;25.87;;
10303;SDS011;5197;48.152;8.590;2022-08-19T04:09:32;26.57;;;22.27;;
10303;SDS011;5197;48.152;8.590;2022-08-19T04:12:00;25.70;;;20.60;;
10303;SDS011;5197;48.152;8.590;2022-08-19T04:14:28;29.33;;;24.80;;
10303;SDS011;5197;48.152;8.590;2022-08-19T04:17:00;29.40;;;23.67;;
10303;SDS011;5197;48.152;8.590;2022-08-19T04:19:31;27.87;;;23.97;;
10303;SDS011;5197;48.152;8.590;2022-08-19T04:22:01;28.73;;;24.50;;
10303;SDS011;5197;48.152;8.590;2022-08-19T04:24:28;24.80;;;18.20;;
10303;SDS011;5197;48.152;8.590;2022-08-19T04:26:56;30.23;;;23.33;;
10303;SDS011;5197;48.152;8.590;2022-08-19T04:29:25;25.97;;;22.13;;
10303;SDS011;5197;48.152;8.590;2022-08-19T04:31:54;19.60;;;15.17;;
10303;SDS011;5197;48.152;8.590;2022-08-19T04:34:23;25.00;;;22.27;;
10303;SDS011;5197;48.152;8.590;2022-08-19T04:36:52;23.90;;;20.23;;
10303;SDS011;5197;48.152;8.590;2022-08-19T04:39:23;20.60;;;16.30;;
10303;SDS011;5197;48.152;8.590;2022-08-19T04:42:15;23.57;;;19.93;;
10303;SDS011;5197;48.152;8.590;2022-08-19T04:45:03;22.67;;;19.87;;
10303;SDS011;5197;48.152;8.590;2022-08-19T04:47:35;20.43;;;15.03;;
10303;SDS011;5197;48.152;8.590;2022-08-19T04:50:22;25.23;;;22.00;;
10303;SDS011;5197;48.152;8.590;2022-08-19T04:52:51;17.73;;;14.87;;
10303;SDS011;5197;48.152;8.590;2022-08-19T04:55:19;22.97;;;19.57;;
10303;SDS011;5197;48.152;8.590;2022-08-19T04:57:45;28.53;;;21.27;;
10303;SDS011;5197;48.152;8.590;2022-08-19T05:00:13;31.27;;;21.17;;
10303;SDS011;5197;48.152;8.590;2022-08-19T05:02:40;25.57;;;21.43;;
10303;SDS011;5197;48.152;8.590;2022-08-19T05:05:07;26.93;;;22.53;;
10303;SDS011;5197;48.152;8.590;2022-08-19T05:07:35;21.53;;;19.10;;
10303;SDS011;5197;48.152;8.590;2022-08-19T05:10:03;28.60;;;23.40;;
10303;SDS011;5197;48.152;8.590;2022-08-19T05:12:31;32.90;;;22.77;;
10303;SDS011;5197;48.152;8.590;2022-08-19T05:14:59;27.33;;;21.10;;
10303;SDS011;5197;48.152;8.590;2022-08-19T05:17:27;27.23;;;21.93;;
10303;SDS011;5197;48.152;8.590;2022-08-19T05:20:02;25.20;;;19.73;;
10303;SDS011;5197;48.152;8.590;2022-08-19T05:22:49;26.17;;;21.10;;
10303;SDS011;5197;48.152;8.590;2022-08-19T05:25:18;26.53;;;23.20;;
10303;SDS011;5197;48.152;8.590;2022-08-19T05:27:47;25.30;;;21.87;;
10303;SDS011;5197;48.152;8.590;2022-08-19T05:30:14;29.23;;;24.13;;
10303;SDS011;5197;48.152;8.590;2022-08-19T05:32:42;31.03;;;24.23;;
10303;SDS011;5197;48.152;8.590;2022-08-19T05:35:10;26.73;;;22.20;;
10303;SDS011;5197;48.152;8.590;2022-08-19T05:37:38;29.80;;;21.27;;
10303;SDS011;5197;48.152;8.590;2022-08-19T05:40:09;26.97;;;24.00;;
10303;SDS011;5197;48.152;8.590;2022-08-19T05:42:36;23.20;;;19.33;;
10303;SDS011;5197;48.152;8.590;2022-08-19T05:45:04;29.77;;;23.40;;
10303;SDS011;5197;48.152;8.590;2022-08-19T05:47:31;29.43;;;20.37;;
10303;SDS011;5197;48.152;8.590;2022-08-19T05:49:59;30.07;;;24.00;;
10303;SDS011;5197;48.152;8.590;2022-08-19T05:52:30;29.57;;;24.23;;
10303;SDS011;5197;48.152;8.590;2022-08-19T05:54:59;29.37;;;23.10;;
10303;SDS011;5197;48.152;8.590;2022-08-19T05:57:26;30.03;;;22.20;;
10303;SDS011;5197;48.152;8.590;2022-08-19T05:59:55;24.00;;;18.70;;
10303;SDS011;5197;48.152;8.590;2022-08-19T06:02:29;24.53;;;21.83;;
10303;SDS011;5197;48.152;8.590;2022-08-19T06:04:57;28.90;;;23.10;;
10303;SDS011;5197;48.152;8.590;2022-08-19T06:07:24;29.37;;;24.13;;
10303;SDS011;5197;48.152;8.590;2022-08-19T06:09:51;28.40;;;23.90;;
10303;SDS011;5197;48.152;8.590;2022-08-19T06:12:26;29.07;;;22.40;;
10303;SDS011;5197;48.152;8.590;2022-08-19T06:14:59;28.60;;;23.40;;
10303;SDS011;5197;48.152;8.590;2022-08-19T06:17:34;29.17;;;22.43;;
10303;SDS011;5197;48.152;8.590;2022-08-19T06:20:06;26.27;;;21.07;;
10303;SDS011;5197;48.152;8.590;2022-08-19T06:22:41;14.73;;;10.83;;
10303;SDS011;5197;48.152;8.590;2022-08-19T06:25:10;27.17;;;22.33;;
10303;SDS011;5197;48.152;8.590;2022-08-19T06:27:38;23.33;;;19.13;;
10303;SDS011;5197;48.152;8.590;2022-08-19T06:30:26;25.30;;;21.20;;
10303;SDS011;5197;48.152;8.590;2022-08-19T06:32:53;22.73;;;17.77;;
10303;SDS011;5197;48.152;8.590;2022-08-19T06:35:20;28.37;;;21.67;;
10303;SDS011;5197;48.152;8.590;2022-08-19T06:37:47;26.50;;;18.53;;
10303;SDS011;5197;48.152;8.590;2022-08-19T06:40:14;25.23;;;18.20;;
10303;SDS011;5197;48.152;8.590;2022-08-19T06:42:41;20.00;;;16.03;;
10303;SDS011;5197;48.152;8.590;2022-08-19T06:45:20;28.53;;;21.13;;
10303;SDS011;5197;48.152;8.590;2022-08-19T06:47:51;30.10;;;22.00;;
10303;SDS011;5197;48.152;8.590;2022-08-19T06:50:23;29.13;;;22.33;;
10303;SDS011;5197;48.152;8.590;2022-08-19T06:52:50;28.27;;;22.67;;
10303;SDS011;5197;48.152;8.590;2022-08-19T06:55:19;33.87;;;24.87;;
10303;SDS011;5197;48.152;8.590;2022-08-19T06:57:46;31.90;;;24.87;;
10303;SDS011;5197;48.152;8.590;2022-08-19T07:00:14;33.80;;;25.53;;
10303;SDS011;5197;48.152;8.590;2022-08-19T07:02:43;34.97;;;26.13;;
10303;SDS011;5197;48.152;8.590;2022-08-19T07:05:18;38.93;;;26.13;;
10303;SDS011;5197;48.152;8.590;2022-08-19T07:07:45;33.57;;;24.60;;
10303;SDS011;5197;48.152;8.590;2022-08-19T07:10:13;26.10;;;19.07;;
10303;SDS011;5197;48.152;8.590;2022-08-19T07:12:40;32.93;;;25.97;;
10303;SDS011;5197;48.152;8.590;2022-08-19T07:15:07;32.17;;;22.67;;
10303;SDS011;5197;48.152;8.590;2022-08-19T07:17:36;33.20;;;24.20;;
10303;SDS011;5197;48.152;8.590;2022-08-19T07:20:07;34.07;;;26.43;;
10303;SDS011;5197;48.152;8.590;2022-08-19T07:22:36;33.17;;;25.07;;
10303;SDS011;5197;48.152;8.590;2022-08-19T07:25:05;31.00;;;22.10;;
10303;SDS011;5197;48.152;8.590;2022-08-19T07:27:33;26.73;;;22.23;;
10303;SDS011;5197;48.152;8.590;2022-08-19T07:30:02;33.97;;;25.83;;
10303;SDS011;5197;48.152;8.590;2022-08-19T07:32:31;32.70;;;24.63;;
10303;SDS011;5197;48.152;8.590;2022-08-19T07:34:58;35.17;;;26.63;;
10303;SDS011;5197;48.152;8.590;2022-08-19T07:37:26;28.73;;;20.27;;
10303;SDS011;5197;48.152;8.590;2022-08-19T07:39:59;24.93;;;18.37;;
10303;SDS011;5197;48.152;8.590;2022-08-19T07:42:27;20.30;;;15.90;;
10303;SDS011;5197;48.152;8.590;2022-08-19T07:44:56;21.10;;;14.67;;
10303;SDS011;5197;48.152;8.590;2022-08-19T07:47:24;32.03;;;26.27;;
10303;SDS011;5197;48.152;8.590;2022-08-19T07:50:13;24.73;;;20.07;;
10303;SDS011;5197;48.152;8.590;2022-08-19T07:52:41;32.07;;;22.90;;
10303;SDS011;5197;48.152;8.590;2022-08-19T07:55:14;29.13;;;23.63;;
10303;SDS011;5197;48.152;8.590;2022-08-19T07:58:02;23.77;;;17.30;;
10303;SDS011;5197;48.152;8.590;2022-08-19T08:00:31;30.23;;;23.20;;
10303;SDS011;5197;48.152;8.590;2022-08-19T08:02:58;32.63;;;26.40;;
10303;SDS011;5197;48.152;8.590;2022-08-19T08:05:25;30.33;;;24.13;;
10303;SDS011;5197;48.152;8.590;2022-08-19T08:08:11;27.60;;;22.73;;
10303;SDS011;5197;48.152;8.590;2022-08-19T08:10:53;26.10;;;19.87;;
10303;SDS011;5197;48.152;8.590;2022-08-19T08:13:23;28.97;;;23.80;;
10303;SDS011;5197;48.152;8.590;2022-08-19T08:15:52;19.60;;;15.13;;
10303;SDS011;5197;48.152;8.590;2022-08-19T08:18:22;27.20;;;22.63;;
10303;SDS011;5197;48.152;8.590;2022-08-19T08:20:54;26.87;;;21.03;;
10303;SDS011;5197;48.152;8.590;2022-08-19T08:23:22;25.43;;;21.73;;
10303;SDS011;5197;48.152;8.590;2022-08-19T08:25:54;20.53;;;15.47;;
10303;SDS011;5197;48.152;8.590;2022-08-19T08:28:23;26.50;;;22.83;;
10303;SDS011;5197;48.152;8.590;2022-08-19T08:30:55;28.70;;;23.03;;
10303;SDS011;5197;48.152;8.590;2022-08-19T08:33:24;26.17;;;20.80;;
10303;SDS011;5197;48.152;8.590;2022-08-19T08:36:01;28.33;;;23.70;;
10303;SDS011;5197;48.152;8.590;2022-08-19T08:38:31;23.50;;;18.80;;
10303;SDS011;5197;48.152;8.590;2022-08-19T08:43:54;27.90;;;20.50;;
10303;SDS011;5197;48.152;8.590;2022-08-19T08:46:25;22.73;;;17.43;;
10303;SDS011;5197;48.152;8.590;2022-08-19T08:49:20;25.60;;;21.10;;
10303;SDS011;5197;48.152;8.590;2022-08-19T08:51:46;27.60;;;23.33;;
10303;SDS011;5197;48.152;8.590;2022-08-19T08:54:28;24.17;;;19.23;;
10303;SDS011;5197;48.152;8.590;2022-08-19T08:57:02;28.83;;;24.30;;
10303;SDS011;5197;48.152;8.590;2022-08-19T08:59:34;26.13;;;23.17;;
10303;SDS011;5197;48.152;8.590;2022-08-19T09:02:05;26.07;;;20.50;;
10303;SDS011;5197;48.152;8.590;2022-08-19T09:04:33;29.17;;;23.67;;
10303;SDS011;5197;48.152;8.590;2022-08-19T09:13:29;25.97;;;19.10;;
10303;SDS011;5197;48.152;8.590;2022-08-19T09:16:07;24.27;;;17.60;;
10303;SDS011;5197;48.152;8.590;2022-08-19T09:18:45;25.63;;;20.63;;
10303;SDS011;5197;48.152;8.590;2022-08-19T09:21:21;21.90;;;17.73;;
10303;SDS011;5197;48.152;8.590;2022-08-19T09:23:58;26.33;;;23.33;;
10303;SDS011;5197;48.152;8.590;2022-08-19T09:26:26;16.57;;;12.60;;
10303;SDS011;5197;48.152;8.590;2022-08-19T09:29:13;29.30;;;25.03;;
10303;SDS011;5197;48.152;8.590;2022-08-19T09:31:40;28.63;;;22.57;;
10303;SDS011;5197;48.152;8.590;2022-08-19T09:34:07;28.03;;;24.47;;
10303;SDS011;5197;48.152;8.590;2022-08-19T09:36:47;26.47;;;21.63;;
10303;SDS011;5197;48.152;8.590;2022-08-19T09:39:21;25.57;;;21.80;;
10303;SDS011;5197;48.152;8.590;2022-08-19T09:41:48;27.87;;;23.07;;
10303;SDS011;5197;48.152;8.590;2022-08-19T09:44:16;30.07;;;23.63;;
10303;SDS011;5197;48.152;8.590;2022-08-19T09:46:44;27.50;;;23.73;;
10303;SDS011;5197;48.152;8.590;2022-08-19T09:49:14;24.70;;;21.97;;
10303;SDS011;5197;48.152;8.590;2022-08-19T09:51:44;27.37;;;21.80;;
10303;SDS011;5197;48.152;8.590;2022-08-19T09:54:17;27.60;;;24.73;;
10303;SDS011;5197;48.152;8.590;2022-08-19T09:56:51;27.77;;;23.57;;
10303;SDS011;5197;48.152;8.590;2022-08-19T09:59:21;30.03;;;25.73;;
10303;SDS011;5197;48.152;8.590;2022-08-19T10:01:48;28.57;;;25.50;;
10303;SDS011;5197;48.152;8.590;2022-08-19T10:04:17;28.33;;;23.90;;
10303;SDS011;5197;48.152;8.590;2022-08-19T10:06:48;27.23;;;24.37;;
10303;SDS011;5197;48.152;8.590;2022-08-19T10:09:20;26.97;;;23.80;;
10303;SDS011;5197;48.152;8.590;2022-08-19T10:11:51;25.90;;;23.23;;
10303;SDS011;5197;48.152;8.590;2022-08-19T10:14:20;18.57;;;15.03;;
10303;SDS011;5197;48.152;8.590;2022-08-19T10:16:50;26.13;;;22.80;;
10303;SDS011;5197;48.152;8.590;2022-08-19T10:19:18;25.57;;;22.53;;
10303;SDS011;5197;48.152;8.590;2022-08-19T10:21:52;28.47;;;24.47;;
10303;SDS011;5197;48.152;8.590;2022-08-19T10:24:25;27.57;;;24.67;;
10303;SDS011;5197;48.152;8.590;2022-08-19T10:26:54;27.17;;;23.03;;
10303;SDS011;5197;48.152;8.590;2022-08-19T10:29:25;25.23;;;21.03;;
10303;SDS011;5197;48.152;8.590;2022-08-19T10:32:02;29.50;;;24.93;;
10303;SDS011;5197;48.152;8.590;2022-08-19T10:34:35;27.40;;;24.00;;
10303;SDS011;5197;48.152;8.590;2022-08-19T10:37:13;26.60;;;23.90;;
10303;SDS011;5197;48.152;8.590;2022-08-19T10:39:56;25.87;;;23.27;;
10303;SDS011;5197;48.152;8.590;2022-08-19T10:42:23;28.50;;;25.50;;
10303;SDS011;5197;48.152;8.590;2022-08-19T10:44:51;27.93;;;24.97;;
10303;SDS011;5197;48.152;8.590;2022-08-19T10:47:18;25.07;;;22.47;;
10303;SDS011;5197;48.152;8.590;2022-08-19T10:49:51;26.57;;;22.63;;
10303;SDS011;5197;48.152;8.590;2022-08-19T10:52:42;23.17;;;20.70;;
10303;SDS011;5197;48.152;8.590;2022-08-19T10:55:17;27.17;;;24.37;;
10303;SDS011;5197;48.152;8.590;2022-08-19T10:58:16;26.63;;;23.93;;
10303;SDS011;5197;48.152;8.590;2022-08-19T11:00:53;24.87;;;22.27;;
10303;SDS011;5197;48.152;8.590;2022-08-19T11:03:22;24.53;;;21.93;;
10303;SDS011;5197;48.152;8.590;2022-08-19T11:06:04;23.27;;;20.97;;
10303;SDS011;5197;48.152;8.590;2022-08-19T11:08:33;23.47;;;16.43;;
10303;SDS011;5197;48.152;8.590;2022-08-19T11:11:01;19.47;;;17.47;;
10303;SDS011;5197;48.152;8.590;2022-08-19T11:13:30;23.60;;;21.17;;
10303;SDS011;5197;48.152;8.590;2022-08-19T11:16:00;23.27;;;21.17;;
10303;SDS011;5197;48.152;8.590;2022-08-19T11:18:37;18.50;;;15.30;;
10303;SDS011;5197;48.152;8.590;2022-08-19T11:23:43;22.23;;;20.13;;
10303;SDS011;5197;48.152;8.590;2022-08-19T11:26:11;22.30;;;20.00;;
10303;SDS011;5197;48.152;8.590;2022-08-19T11:28:39;12.63;;;10.97;;
10303;SDS011;5197;48.152;8.590;2022-08-19T11:31:17;21.67;;;19.57;;
10303;SDS011;5197;48.152;8.590;2022-08-19T11:33:49;22.10;;;19.70;;
10303;SDS011;5197;48.152;8.590;2022-08-19T11:36:20;19.20;;;17.27;;
10303;SDS011;5197;48.152;8.590;2022-08-19T11:38:48;15.23;;;13.60;;
10303;SDS011;5197;48.152;8.590;2022-08-19T11:41:17;20.60;;;18.57;;
10303;SDS011;5197;48.152;8.590;2022-08-19T11:43:45;21.97;;;19.77;;
10303;SDS011;5197;48.152;8.590;2022-08-19T11:46:13;20.13;;;18.30;;
10303;SDS011;5197;48.152;8.590;2022-08-19T11:48:41;18.30;;;14.60;;
10303;SDS011;5197;48.152;8.590;2022-08-19T11:51:14;17.13;;;15.30;;
10303;SDS011;5197;48.152;8.590;2022-08-19T11:53:42;18.75;;;16.95;;
10303;SDS011;5197;48.152;8.590;2022-08-19T11:56:09;15.30;;;13.53;;
10303;SDS011;5197;48.152;8.590;2022-08-19T11:58:37;11.02;;;9.93;;
10303;SDS011;5197;48.152;8.590;2022-08-19T12:01:06;17.23;;;13.93;;
10303;SDS011;5197;48.152;8.590;2022-08-19T12:03:34;21.47;;;19.47;;
10303;SDS011;5197;48.152;8.590;2022-08-19T12:06:04;22.27;;;20.20;;
10303;SDS011;5197;48.152;8.590;2022-08-19T12:08:35;18.85;;;17.05;;
10303;SDS011;5197;48.152;8.590;2022-08-19T12:11:02;22.38;;;20.13;;
10303;SDS011;5197;48.152;8.590;2022-08-19T12:13:30;21.60;;;19.33;;
10303;SDS011;5197;48.152;8.590;2022-08-19T12:15:57;18.20;;;16.43;;
10303;SDS011;5197;48.152;8.590;2022-08-19T12:18:25;17.55;;;15.45;;
10303;SDS011;5197;48.152;8.590;2022-08-19T12:20:53;20.37;;;18.43;;
10303;SDS011;5197;48.152;8.590;2022-08-19T12:23:23;21.15;;;19.05;;
10303;SDS011;5197;48.152;8.590;2022-08-19T12:25:50;21.80;;;16.47;;
10303;SDS011;5197;48.152;8.590;2022-08-19T12:28:21;22.45;;;20.45;;
10303;SDS011;5197;48.152;8.590;2022-08-19T12:30:50;20.93;;;17.73;;
10303;SDS011;5197;48.152;8.590;2022-08-19T12:33:18;26.27;;;20.00;;
10303;SDS011;5197;48.152;8.590;2022-08-19T12:35:50;19.02;;;17.02;;
10303;SDS011;5197;48.152;8.590;2022-08-19T12:38:17;14.33;;;12.83;;
10303;SDS011;5197;48.152;8.590;2022-08-19T12:40:45;17.90;;;15.07;;
10303;SDS011;5197;48.152;8.590;2022-08-19T12:43:13;22.65;;;18.77;;
10303;SDS011;5197;48.152;8.590;2022-08-19T12:45:42;19.98;;;17.98;;
10303;SDS011;5197;48.152;8.590;2022-08-19T12:48:12;15.07;;;13.57;;
10303;SDS011;5197;48.152;8.590;2022-08-19T12:50:59;16.10;;;14.02;;
10303;SDS011;5197;48.152;8.590;2022-08-19T12:53:31;24.58;;;18.90;;
10303;SDS011;5197;48.152;8.590;2022-08-19T12:56:00;17.37;;;15.57;;
10303;SDS011;5197;48.152;8.590;2022-08-19T12:58:27;20.80;;;18.48;;
10303;SDS011;5197;48.152;8.590;2022-08-19T13:00:55;21.67;;;19.48;;
10303;SDS011;5197;48.152;8.590;2022-08-19T13:03:22;18.60;;;16.55;;
10303;SDS011;5197;48.152;8.590;2022-08-19T13:05:56;21.60;;;19.30;;
10303;SDS011;5197;48.152;8.590;2022-08-19T13:08:23;20.05;;;17.90;;
10303;SDS011;5197;48.152;8.590;2022-08-19T13:10:50;17.73;;;15.80;;
10303;SDS011;5197;48.152;8.590;2022-08-19T13:13:17;18.70;;;15.45;;
10303;SDS011;5197;48.152;8.590;2022-08-19T13:15:44;16.15;;;14.63;;
10303;SDS011;5197;48.152;8.590;2022-08-19T13:18:11;21.63;;;16.47;;
10303;SDS011;5197;48.152;8.590;2022-08-19T13:20:39;17.58;;;15.82;;
10303;SDS011;5197;48.152;8.590;2022-08-19T13:23:07;19.50;;;17.35;;
10303;SDS011;5197;48.152;8.590;2022-08-19T13:25:35;17.45;;;15.75;;
10303;SDS011;5197;48.152;8.590;2022-08-19T13:28:02;19.58;;;17.80;;
10303;SDS011;5197;48.152;8.590;2022-08-19T13:30:30;18.43;;;16.53;;
10303;SDS011;5197;48.152;8.590;2022-08-19T13:33:16;16.50;;;14.70;;
10303;SDS011;5197;48.152;8.590;2022-08-19T13:35:47;16.30;;;14.48;;
10303;SDS011;5197;48.152;8.590;2022-08-19T13:38:23;14.88;;;13.45;;
10303;SDS011;5197;48.152;8.590;2022-08-19T13:40:51;12.63;;;11.38;;
10303;SDS011;5197;48.152;8.590;2022-08-19T13:43:20;13.13;;;11.95;;
10303;SDS011;5197;48.152;8.590;2022-08-19T13:45:53;9.45;;;8.35;;
10303;SDS011;5197;48.152;8.590;2022-08-19T13:48:23;19.10;;;14.27;;
10303;SDS011;5197;48.152;8.590;2022-08-19T13:50:53;16.05;;;13.50;;
10303;SDS011;5197;48.152;8.590;2022-08-19T13:53:21;16.55;;;14.75;;
10303;SDS011;5197;48.152;8.590;2022-08-19T13:55:48;14.38;;;11.77;;
10303;SDS011;5197;48.152;8.590;2022-08-19T13:58:16;14.90;;;13.43;;
10303;SDS011;5197;48.152;8.590;2022-08-19T14:00:44;15.47;;;14.07;;
10303;SDS011;5197;48.152;8.590;2022-08-19T14:03:12;13.27;;;12.00;;
10303;SDS011;5197;48.152;8.590;2022-08-19T14:05:39;14.48;;;13.18;;
10303;SDS011;5197;48.152;8.590;2022-08-19T14:08:06;13.27;;;11.93;;
10303;SDS011;5197;48.152;8.590;2022-08-19T14:10:33;16.40;;;13.18;;
10303;SDS011;5197;48.152;8.590;2022-08-19T14:13:01;11.00;;;9.95;;
10303;SDS011;5197;48.152;8.590;2022-08-19T14:15:29;14.98;;;12.57;;
10303;SDS011;5197;48.152;8.590;2022-08-19T14:17:57;12.95;;;11.85;;
10303;SDS011;5197;48.152;8.590;2022-08-19T14:20:24;14.13;;;12.65;;
10303;SDS011;5197;48.152;8.590;2022-08-19T14:22:52;12.93;;;11.85;;
10303;SDS011;5197;48.152;8.590;2022-08-19T14:25:23;12.35;;;11.15;;
10303;SDS011;5197;48.152;8.590;2022-08-19T14:27:54;11.13;;;10.13;;
10303;SDS011;5197;48.152;8.590;2022-08-19T14:30:23;10.80;;;10.00;;
10303;SDS011;5197;48.152;8.590;2022-08-19T14:32:54;9.10;;;8.30;;
10303;SDS011;5197;48.152;8.590;2022-08-19T14:35:22;11.43;;;10.43;;
10303;SDS011;5197;48.152;8.590;2022-08-19T14:37:49;11.05;;;9.95;;
10303;SDS011;5197;48.152;8.590;2022-08-19T14:40:18;12.00;;;10.80;;
10303;SDS011;5197;48.152;8.590;2022-08-19T14:42:48;11.98;;;10.75;;
10303;SDS011;5197;48.152;8.590;2022-08-19T14:45:15;10.93;;;10.02;;
10303;SDS011;5197;48.152;8.590;2022-08-19T14:47:41;10.73;;;9.82;;
10303;SDS011;5197;48.152;8.590;2022-08-19T14:50:11;11.85;;;10.38;;
10303;SDS011;5197;48.152;8.590;2022-08-19T14:52:44;10.60;;;9.60;;
10303;SDS011;5197;48.152;8.590;2022-08-19T14:55:12;11.30;;;10.25;;
10303;SDS011;5197;48.152;8.590;2022-08-19T14:57:41;10.95;;;10.05;;
10303;SDS011;5197;48.152;8.590;2022-08-19T15:00:09;12.63;;;10.38;;
10303;SDS011;5197;48.152;8.590;2022-08-19T15:02:40;11.77;;;10.68;;
10303;SDS011;5197;48.152;8.590;2022-08-19T15:05:08;10.90;;;9.90;;
10303;SDS011;5197;48.152;8.590;2022-08-19T15:07:35;11.82;;;10.50;;